createdAt,value
2023-02-25T00:01:16.356Z,5.82
2023-02-25T00:02:36.950Z,5.67
2023-02-25T00:03:58.164Z,4.63
2023-02-25T00:05:19.344Z,4.65
2023-02-25T00:06:40.006Z,4.22
2023-02-25T00:08:00.720Z,4.55
2023-02-25T00:09:21.375Z,4.78
2023-02-25T00:10:42.140Z,4.68
2023-02-25T00:12:03.102Z,4.93
2023-02-25T00:13:23.984Z,5.18
2023-02-25T00:14:45.736Z,6.25
2023-02-25T00:16:08.144Z,4.55
2023-02-25T00:17:28.662Z,4.75
2023-02-25T00:18:53.835Z,4.78
2023-02-25T00:20:14.633Z,4.90
2023-02-25T00:21:35.072Z,5.88
2023-02-25T00:22:56.018Z,4.95
2023-02-25T00:24:17.244Z,4.20
2023-02-25T00:25:37.983Z,5.00
2023-02-25T00:26:58.720Z,4.97
2023-02-25T00:28:19.438Z,4.93
2023-02-25T00:29:40.229Z,4.25
2023-02-25T00:31:06.585Z,4.55
2023-02-25T00:32:26.967Z,4.60
2023-02-25T00:33:48.031Z,5.10
2023-02-25T00:35:09.254Z,4.43
2023-02-25T00:36:30.038Z,3.00
2023-02-25T00:37:51.322Z,2.28
2023-02-25T00:39:12.020Z,2.47
2023-02-25T00:40:32.832Z,2.20
2023-02-25T00:41:53.665Z,2.38
2023-02-25T00:43:14.359Z,2.67
2023-02-25T00:44:35.179Z,1.73
2023-02-25T00:45:55.882Z,2.50
2023-02-25T00:47:19.797Z,2.35
2023-02-25T00:48:41.028Z,2.30
2023-02-25T00:50:01.747Z,3.25
2023-02-25T00:51:23.952Z,1.70
2023-02-25T00:52:44.606Z,2.90
2023-02-25T00:54:05.732Z,3.03
2023-02-25T00:55:26.404Z,4.57
2023-02-25T00:56:47.398Z,3.30
2023-02-25T00:58:08.406Z,3.40
2023-02-25T00:59:29.359Z,3.92
2023-02-25T01:00:51.894Z,3.38
2023-02-25T01:02:12.676Z,3.20
2023-02-25T01:03:35.120Z,3.50
2023-02-25T01:04:56.008Z,3.40
2023-02-25T01:06:17.214Z,3.78
2023-02-25T01:07:37.790Z,4.30
2023-02-25T01:08:59.251Z,3.92
2023-02-25T01:10:19.973Z,3.75
2023-02-25T01:11:42.140Z,2.97
2023-02-25T01:13:02.632Z,3.92
2023-02-25T01:14:24.466Z,3.50
2023-02-25T01:15:45.032Z,3.20
2023-02-25T01:17:05.935Z,4.47
2023-02-25T01:18:26.748Z,3.83
2023-02-25T01:19:48.779Z,3.78
2023-02-25T01:21:15.675Z,3.50
2023-02-25T01:22:36.314Z,3.97
2023-02-25T01:23:59.526Z,4.20
2023-02-25T01:25:20.040Z,5.03
2023-02-25T01:26:42.095Z,3.45
2023-02-25T01:28:02.829Z,3.17
2023-02-25T01:29:24.931Z,3.70
2023-02-25T01:30:45.493Z,3.25
2023-02-25T01:32:09.005Z,3.53
2023-02-25T01:33:29.789Z,3.50
2023-02-25T01:34:51.629Z,4.07
2023-02-25T01:36:12.319Z,3.60
2023-02-25T01:37:33.197Z,4.22
2023-02-25T01:38:54.171Z,4.72
2023-02-25T01:40:15.927Z,3.88
2023-02-25T01:42:57.807Z,3.30
2023-02-25T01:44:20.465Z,3.70
2023-02-25T01:45:43.212Z,3.45
2023-02-25T01:47:04.771Z,3.42
2023-02-25T01:48:28.146Z,4.20
2023-02-25T01:49:49.073Z,4.47
2023-02-25T01:51:11.499Z,3.25
2023-02-25T01:52:32.069Z,4.43
2023-02-25T01:53:52.970Z,4.53
2023-02-25T01:55:13.549Z,3.77
2023-02-25T01:56:34.832Z,4.10
2023-02-25T01:57:57.709Z,4.50
2023-02-25T01:59:19.550Z,5.18
2023-02-25T02:00:40.152Z,4.38
2023-02-25T02:02:01.594Z,4.97
2023-02-25T02:03:23.204Z,5.28
2023-02-25T02:04:45.310Z,4.22
2023-02-25T02:06:09.599Z,5.25
2023-02-25T02:07:31.866Z,4.30
2023-02-25T02:08:52.597Z,5.38
2023-02-25T02:10:13.470Z,4.18
2023-02-25T02:11:34.515Z,4.55
2023-02-25T02:12:55.667Z,5.18
2023-02-25T02:14:19.297Z,4.20
2023-02-25T02:15:43.685Z,4.50
2023-02-25T02:17:16.028Z,3.40
2023-02-25T02:18:39.782Z,3.72
2023-02-25T02:20:09.457Z,2.78
2023-02-25T02:21:46.559Z,3.60
2023-02-25T02:23:25.740Z,3.35
2023-02-25T02:25:17.709Z,2.90
2023-02-25T02:26:49.323Z,3.13
2023-02-25T02:29:01.727Z,2.38
2023-02-25T02:30:35.915Z,2.83
2023-02-25T02:32:17.927Z,2.90
2023-02-25T02:33:43.431Z,3.05
2023-02-25T02:35:11.569Z,2.92
2023-02-25T02:36:39.521Z,3.55
2023-02-25T02:38:07.344Z,4.28
2023-02-25T02:39:31.685Z,4.38
2023-02-25T02:40:59.949Z,3.65
2023-02-25T02:42:28.790Z,3.58
2023-02-25T02:43:53.751Z,4.28
2023-02-25T02:45:19.445Z,4.38
2023-02-25T02:46:44.718Z,4.93
2023-02-25T02:48:10.156Z,4.00
2023-02-25T02:49:36.100Z,4.60
2023-02-25T02:50:58.240Z,3.38
2023-02-25T02:52:21.177Z,4.47
2023-02-25T02:53:45.958Z,3.70
2023-02-25T02:55:10.427Z,5.03
2023-02-25T02:56:33.365Z,4.07
2023-02-25T02:57:58.589Z,4.47
2023-02-25T02:59:23.864Z,4.20
2023-02-25T03:00:46.605Z,4.90
2023-02-25T03:02:10.423Z,4.22
2023-02-25T03:03:35.845Z,4.78
2023-02-25T03:04:59.585Z,4.47
2023-02-25T03:06:23.405Z,4.60
2023-02-25T03:07:47.784Z,3.92
2023-02-25T03:09:10.689Z,4.47
2023-02-25T03:10:32.394Z,4.53
2023-02-25T03:11:53.286Z,3.50
2023-02-25T03:13:14.656Z,5.03
2023-02-25T03:14:36.417Z,3.40
2023-02-25T03:15:59.488Z,4.05
2023-02-25T03:17:22.534Z,4.38
2023-02-25T03:18:49.495Z,3.38
2023-02-25T03:20:13.740Z,3.33
2023-02-25T03:21:38.965Z,3.97
2023-02-25T03:23:01.478Z,4.10
2023-02-25T03:24:23.547Z,4.13
2023-02-25T03:25:46.976Z,3.78
2023-02-25T03:27:24.727Z,3.97
2023-02-25T03:28:45.750Z,4.00
2023-02-25T03:30:09.382Z,3.58
2023-02-25T03:31:33.212Z,3.65
2023-02-25T03:32:57.477Z,3.92
2023-02-25T03:34:22.111Z,3.78
2023-02-25T03:35:44.237Z,3.80
2023-02-25T03:37:08.643Z,5.30
2023-02-25T03:38:31.339Z,3.75
2023-02-25T03:39:55.418Z,4.78
2023-02-25T03:41:16.412Z,4.20
2023-02-25T03:42:39.373Z,3.55
2023-02-25T03:44:00.285Z,3.35
2023-02-25T03:45:21.982Z,4.18
2023-02-25T03:46:44.595Z,3.72
2023-02-25T03:48:06.353Z,3.35
2023-02-25T03:49:33.125Z,3.28
2023-02-25T03:50:58.286Z,3.67
2023-02-25T03:52:21.776Z,4.57
2023-02-25T03:53:42.919Z,4.65
2023-02-25T03:55:03.963Z,4.63
2023-02-25T03:56:24.757Z,4.13
2023-02-25T03:57:48.257Z,4.47
2023-02-25T03:59:08.968Z,5.18
2023-02-25T04:00:32.479Z,4.95
2023-02-25T04:01:53.797Z,5.47
2023-02-25T04:03:14.439Z,5.03
2023-02-25T04:04:36.963Z,4.55
2023-02-25T04:05:57.820Z,4.95
2023-02-25T04:07:18.522Z,4.82
2023-02-25T04:08:39.263Z,4.25
2023-02-25T04:09:59.893Z,4.85
2023-02-25T04:11:21.016Z,4.60
2023-02-25T04:12:41.796Z,4.68
2023-02-25T04:14:02.603Z,3.95
2023-02-25T04:15:23.473Z,5.53
2023-02-25T04:16:44.215Z,4.63
2023-02-25T04:18:05.706Z,4.80
2023-02-25T04:19:26.536Z,4.15
2023-02-25T04:20:48.699Z,4.07
2023-02-25T04:22:09.378Z,3.83
2023-02-25T04:23:30.012Z,4.15
2023-02-25T04:24:51.081Z,4.53
2023-02-25T04:26:11.758Z,3.53
2023-02-25T04:27:32.493Z,4.15
2023-02-25T04:28:53.679Z,3.00
2023-02-25T04:30:17.265Z,2.72
2023-02-25T04:31:38.159Z,2.40
2023-02-25T04:32:59.140Z,2.72
2023-02-25T04:34:20.119Z,3.00
2023-02-25T04:35:40.844Z,2.42
2023-02-25T04:37:03.026Z,2.65
2023-02-25T04:38:23.728Z,3.08
2023-02-25T04:39:44.587Z,2.77
2023-02-25T04:41:05.539Z,3.28
2023-02-25T04:42:26.073Z,3.80
2023-02-25T04:43:46.612Z,3.30
2023-02-25T04:45:09.389Z,3.03
2023-02-25T04:46:31.421Z,2.33
2023-02-25T04:47:52.988Z,3.38
2023-02-25T04:49:13.315Z,2.63
2023-02-25T04:50:34.129Z,2.80
2023-02-25T04:51:54.617Z,3.20
2023-02-25T04:53:16.976Z,2.85
2023-02-25T04:54:37.642Z,2.53
2023-02-25T04:56:02.428Z,2.45
2023-02-25T04:57:23.056Z,2.40
2023-02-25T04:58:44.274Z,3.00
2023-02-25T05:00:06.110Z,3.20
2023-02-25T05:02:47.541Z,3.15
2023-02-25T05:04:08.358Z,3.38
2023-02-25T05:05:29.105Z,3.03
2023-02-25T05:06:49.930Z,3.05
2023-02-25T05:08:10.492Z,3.50
2023-02-25T05:09:33.076Z,4.68
2023-02-25T05:10:54.007Z,4.20
2023-02-25T05:12:14.617Z,3.22
2023-02-25T05:13:34.951Z,3.60
2023-02-25T05:14:55.482Z,3.30
2023-02-25T05:16:16.946Z,3.80
2023-02-25T05:17:37.447Z,3.67
2023-02-25T05:18:58.289Z,4.65
2023-02-25T05:20:19.290Z,3.00
2023-02-25T05:21:40.367Z,4.10
2023-02-25T05:23:00.956Z,3.63
2023-02-25T05:24:21.950Z,4.32
2023-02-25T05:25:44.556Z,3.65
2023-02-25T05:27:05.339Z,3.97
2023-02-25T05:28:26.789Z,3.63
2023-02-25T05:29:47.550Z,3.30
2023-02-25T05:31:10.010Z,4.23
2023-02-25T05:32:30.904Z,4.03
2023-02-25T05:35:13.384Z,4.07
2023-02-25T05:36:34.032Z,4.97
2023-02-25T05:37:54.829Z,3.90
2023-02-25T05:39:15.484Z,3.78
2023-02-25T05:40:36.290Z,4.30
2023-02-25T05:41:58.743Z,4.65
2023-02-25T05:43:19.438Z,4.53
2023-02-25T05:44:40.201Z,4.55
2023-02-25T05:46:01.233Z,4.55
2023-02-25T05:47:21.733Z,4.20
2023-02-25T05:48:43.922Z,4.65
2023-02-25T05:50:05.461Z,5.25
2023-02-25T05:51:26.418Z,4.07
2023-02-25T05:52:46.919Z,4.90
2023-02-25T05:54:07.853Z,4.45
2023-02-25T05:55:28.451Z,4.37
2023-02-25T05:56:51.526Z,5.95
2023-02-25T05:58:13.756Z,5.43
2023-02-25T05:59:34.436Z,4.25
2023-02-25T06:00:55.502Z,4.05
2023-02-25T06:02:16.062Z,4.50
2023-02-25T06:03:37.040Z,4.97
2023-02-25T06:04:57.553Z,5.60
2023-02-25T06:06:19.623Z,4.68
2023-02-25T06:07:40.272Z,4.93
2023-02-25T06:09:00.998Z,3.92
2023-02-25T06:10:21.661Z,3.55
2023-02-25T06:11:42.759Z,5.53
2023-02-25T06:13:03.475Z,3.50
2023-02-25T06:14:25.699Z,3.70
2023-02-25T06:15:46.942Z,4.28
2023-02-25T06:17:07.648Z,3.42
2023-02-25T06:18:28.448Z,3.97
2023-02-25T06:19:49.091Z,3.17
2023-02-25T06:21:11.593Z,4.82
2023-02-25T06:22:32.404Z,4.35
2023-02-25T06:23:53.394Z,4.07
2023-02-25T06:25:14.082Z,3.75
2023-02-25T06:26:34.847Z,4.13
2023-02-25T06:27:55.505Z,3.42
2023-02-25T06:29:16.303Z,3.78
2023-02-25T06:30:41.111Z,4.32
2023-02-25T06:32:01.800Z,3.38
2023-02-25T06:33:22.800Z,4.03
2023-02-25T06:34:43.662Z,4.13
2023-02-25T06:36:05.334Z,4.50
2023-02-25T06:37:25.733Z,3.63
2023-02-25T06:38:46.526Z,4.30
2023-02-25T06:40:08.414Z,3.67
2023-02-25T06:41:28.924Z,4.57
2023-02-25T06:42:49.930Z,4.53
2023-02-25T06:44:10.520Z,4.15
2023-02-25T06:45:31.206Z,4.60
2023-02-25T06:46:53.745Z,3.58
2023-02-25T06:48:14.544Z,4.57
2023-02-25T06:49:35.123Z,4.00
2023-02-25T06:50:55.856Z,3.35
2023-02-25T06:52:16.835Z,3.80
2023-02-25T06:53:37.484Z,4.10
2023-02-25T06:54:58.086Z,3.42
2023-02-25T06:56:18.825Z,2.72
2023-02-25T06:57:39.664Z,2.95
2023-02-25T06:59:00.301Z,2.70
2023-02-25T07:00:21.526Z,3.28
2023-02-25T07:03:04.397Z,3.38
2023-02-25T07:04:25.164Z,3.22
2023-02-25T07:05:46.052Z,2.90
2023-02-25T07:07:07.339Z,2.58
2023-02-25T07:08:27.960Z,2.53
2023-02-25T07:09:48.768Z,3.10
2023-02-25T07:11:27.145Z,3.53
2023-02-25T07:12:48.067Z,3.50
2023-02-25T07:14:09.635Z,2.97
2023-02-25T07:15:30.241Z,3.00
2023-02-25T07:16:51.212Z,2.55
2023-02-25T07:18:13.235Z,3.00
2023-02-25T07:19:33.851Z,3.40
2023-02-25T07:20:54.570Z,3.10
2023-02-25T07:22:16.697Z,3.37
2023-02-25T07:23:37.405Z,3.72
2023-02-25T07:24:57.838Z,2.97
2023-02-25T07:26:18.431Z,3.33
2023-02-25T07:27:43.601Z,3.50
2023-02-25T07:29:06.167Z,3.25
2023-02-25T07:30:26.567Z,3.03
2023-02-25T07:31:47.503Z,3.63
2023-02-25T07:33:08.438Z,3.42
2023-02-25T07:34:30.508Z,3.45
2023-02-25T07:35:54.476Z,3.65
2023-02-25T07:37:14.718Z,3.60
2023-02-25T07:38:35.572Z,3.40
2023-02-25T07:39:56.304Z,3.40
2023-02-25T07:41:19.172Z,4.35
2023-02-25T07:42:40.552Z,4.93
2023-02-25T07:44:00.936Z,3.35
2023-02-25T07:45:21.693Z,4.32
2023-02-25T07:46:42.419Z,3.90
2023-02-25T07:48:02.955Z,3.15
2023-02-25T07:49:23.567Z,3.88
2023-02-25T07:50:45.654Z,3.83
2023-02-25T07:52:06.350Z,4.20
2023-02-25T07:53:27.055Z,5.57
2023-02-25T07:54:47.504Z,4.38
2023-02-25T07:56:08.719Z,4.38
2023-02-25T07:57:29.218Z,5.65
2023-02-25T07:58:49.703Z,4.55
2023-02-25T08:00:11.553Z,6.22
2023-02-25T08:01:33.520Z,5.38
2023-02-25T08:02:54.230Z,3.58
2023-02-25T08:04:14.872Z,4.82
2023-02-25T08:05:36.225Z,5.45
2023-02-25T08:06:58.147Z,5.03
2023-02-25T08:08:18.583Z,4.82
2023-02-25T08:09:39.550Z,6.75
2023-02-25T08:11:05.165Z,4.75
2023-02-25T08:12:26.127Z,6.68
2023-02-25T08:13:46.899Z,4.32
2023-02-25T08:15:08.336Z,5.00
2023-02-25T08:16:28.923Z,4.70
2023-02-25T08:17:49.465Z,4.05
2023-02-25T08:19:10.430Z,5.45
2023-02-25T08:20:31.540Z,4.55
2023-02-25T08:21:52.143Z,5.55
2023-02-25T08:23:14.168Z,4.53
2023-02-25T08:24:34.740Z,4.70
2023-02-25T08:25:55.787Z,4.55
2023-02-25T08:27:16.529Z,4.78
2023-02-25T08:28:37.428Z,5.32
2023-02-25T08:29:58.206Z,5.63
2023-02-25T08:31:20.046Z,4.40
2023-02-25T08:32:40.879Z,5.28
2023-02-25T08:34:01.903Z,5.72
2023-02-25T08:35:23.117Z,5.35
2023-02-25T08:36:44.003Z,4.78
2023-02-25T08:38:04.533Z,4.75
2023-02-25T08:39:26.556Z,5.22
2023-02-25T08:40:47.011Z,4.95
2023-02-25T08:42:07.609Z,5.75
2023-02-25T08:43:28.393Z,5.07
2023-02-25T08:44:49.296Z,5.22
2023-02-25T08:46:09.892Z,5.40
2023-02-25T08:47:30.312Z,4.80
2023-02-25T08:48:52.131Z,5.18
2023-02-25T08:50:12.504Z,3.90
2023-02-25T08:51:33.862Z,5.13
2023-02-25T08:52:54.591Z,4.50
2023-02-25T08:54:16.025Z,5.82
2023-02-25T08:58:19.181Z,4.70
2023-02-25T08:59:39.635Z,5.13
2023-02-25T09:01:00.915Z,4.72
2023-02-25T09:02:21.635Z,6.53
2023-02-25T09:03:43.275Z,4.70
2023-02-25T09:05:04.504Z,5.45
2023-02-25T09:06:26.758Z,4.60
2023-02-25T09:07:47.175Z,6.32
2023-02-25T09:09:07.899Z,5.20
2023-02-25T09:10:34.031Z,5.38
2023-02-25T09:12:01.411Z,3.75
2023-02-25T09:13:21.851Z,4.38
2023-02-25T09:14:42.771Z,4.55
2023-02-25T09:16:04.019Z,4.30
2023-02-25T09:17:24.733Z,4.82
2023-02-25T09:18:45.421Z,5.07
2023-02-25T09:20:07.464Z,4.35
2023-02-25T09:21:28.236Z,4.68
2023-02-25T09:22:48.912Z,4.78
2023-02-25T09:24:10.388Z,4.55
2023-02-25T09:26:51.189Z,5.25
2023-02-25T09:28:13.321Z,4.33
2023-02-25T09:29:34.436Z,5.18
2023-02-25T09:30:56.382Z,6.50
2023-02-25T09:32:18.766Z,4.45
2023-02-25T09:33:39.608Z,4.68
2023-02-25T09:35:01.425Z,4.82
2023-02-25T09:36:22.406Z,4.80
2023-02-25T09:37:43.009Z,4.10
2023-02-25T09:39:03.864Z,3.90
2023-02-25T09:40:24.987Z,3.88
2023-02-25T09:41:50.121Z,3.95
2023-02-25T09:43:20.319Z,3.67
2023-02-25T09:44:43.613Z,4.03
2023-02-25T09:46:07.195Z,3.97
2023-02-25T09:47:31.204Z,3.25
2023-02-25T09:48:55.605Z,4.45
2023-02-25T09:50:18.934Z,3.75
2023-02-25T09:51:43.442Z,3.90
2023-02-25T09:53:09.043Z,3.80
2023-02-25T09:54:32.692Z,3.83
2023-02-25T09:55:53.868Z,3.75
2023-02-25T09:57:17.707Z,4.60
2023-02-25T09:58:42.629Z,4.05
2023-02-25T10:00:04.676Z,4.13
2023-02-25T10:01:30.087Z,3.67
2023-02-25T10:02:54.720Z,3.97
2023-02-25T10:04:22.680Z,3.38
2023-02-25T10:05:47.062Z,3.97
2023-02-25T10:07:13.205Z,4.18
2023-02-25T10:08:37.971Z,4.05
2023-02-25T10:10:02.072Z,4.38
2023-02-25T10:11:29.688Z,4.43
2023-02-25T10:12:54.189Z,3.13
2023-02-25T10:14:28.223Z,3.75
2023-02-25T10:15:54.949Z,3.70
2023-02-25T10:17:22.833Z,3.90
2023-02-25T10:18:52.990Z,4.18
2023-02-25T10:20:39.655Z,3.78
2023-02-25T10:22:19.551Z,3.63
2023-02-25T10:23:50.810Z,3.88
2023-02-25T10:25:14.936Z,3.50
2023-02-25T10:26:37.884Z,3.58
2023-02-25T10:28:00.616Z,2.97
2023-02-25T10:29:26.581Z,3.00
2023-02-25T10:30:50.419Z,3.80
2023-02-25T10:32:18.363Z,3.33
2023-02-25T10:33:40.765Z,3.28
2023-02-25T10:35:05.809Z,3.17
2023-02-25T10:36:30.821Z,2.88
2023-02-25T10:37:51.706Z,3.13
2023-02-25T10:39:12.127Z,3.78
2023-02-25T10:40:32.774Z,3.10
2023-02-25T10:41:53.712Z,3.15
2023-02-25T10:43:20.592Z,2.63
2023-02-25T10:44:42.659Z,3.20
2023-02-25T10:46:12.636Z,3.17
2023-02-25T10:47:35.821Z,2.42
2023-02-25T10:48:58.502Z,2.30
2023-02-25T10:50:38.945Z,2.00
2023-02-25T10:52:06.593Z,2.47
2023-02-25T10:53:27.223Z,2.40
2023-02-25T10:54:49.710Z,2.45
2023-02-25T10:56:10.275Z,2.60
2023-02-25T10:57:41.261Z,1.92
2023-02-25T10:59:04.442Z,2.05
2023-02-25T11:00:28.229Z,2.40
2023-02-25T11:01:49.355Z,2.10
2023-02-25T11:03:22.375Z,2.20
2023-02-25T11:04:43.261Z,2.08
2023-02-25T11:06:13.366Z,2.07
2023-02-25T11:07:35.633Z,2.05
2023-02-25T11:08:57.973Z,2.08
2023-02-25T11:10:20.817Z,1.83
2023-02-25T11:11:53.541Z,2.05
2023-02-25T11:13:28.380Z,1.70
2023-02-25T11:14:48.929Z,1.52
2023-02-25T11:16:12.181Z,2.03
2023-02-25T11:17:32.536Z,2.65
2023-02-25T11:18:55.588Z,2.33
2023-02-25T11:20:22.830Z,2.15
2023-02-25T11:21:43.762Z,1.80
2023-02-25T11:23:04.575Z,2.47
2023-02-25T11:24:30.285Z,2.00
2023-02-25T11:25:51.274Z,2.47
2023-02-25T11:27:25.872Z,3.28
2023-02-25T11:28:48.429Z,2.30
2023-02-25T11:30:18.835Z,2.72
2023-02-25T11:31:42.478Z,1.70
2023-02-25T11:33:06.357Z,1.90
2023-02-25T11:34:29.610Z,1.92
2023-02-25T11:35:55.671Z,2.35
2023-02-25T11:37:36.344Z,2.60
2023-02-25T11:39:19.795Z,2.33
2023-02-25T11:40:42.663Z,2.13
2023-02-25T11:42:22.053Z,2.38
2023-02-25T11:43:42.755Z,2.10
2023-02-25T11:45:04.496Z,2.22
2023-02-25T11:46:26.429Z,2.60
2023-02-25T11:47:48.658Z,1.98
2023-02-25T11:49:15.252Z,2.00
2023-02-25T11:50:45.547Z,1.85
2023-02-25T11:52:11.714Z,2.17
2023-02-25T11:53:49.874Z,2.03
2023-02-25T11:55:22.849Z,2.35
2023-02-25T11:56:46.649Z,1.52
2023-02-25T11:58:14.003Z,1.90
2023-02-25T11:59:36.847Z,2.00
2023-02-25T12:01:00.210Z,1.85
2023-02-25T12:02:38.272Z,1.38
2023-02-25T12:04:18.618Z,1.77
2023-02-25T12:05:52.936Z,2.05
2023-02-25T12:08:12.052Z,2.05
2023-02-25T12:10:00.665Z,1.15
2023-02-25T12:11:47.697Z,1.60
2023-02-25T12:13:43.174Z,1.85
2023-02-25T12:15:24.653Z,1.30
2023-02-25T12:17:11.655Z,1.77
2023-02-25T12:19:04.988Z,1.60
2023-02-25T12:20:58.439Z,2.10
2023-02-25T12:22:51.468Z,1.70
2023-02-25T12:24:51.811Z,1.33
2023-02-25T12:26:15.214Z,2.35
2023-02-25T12:28:03.399Z,2.10
2023-02-25T12:29:37.338Z,1.50
2023-02-25T12:31:06.709Z,2.28
2023-02-25T12:32:45.670Z,1.85
2023-02-25T12:34:21.665Z,2.35
2023-02-25T12:35:57.888Z,1.92
2023-02-25T12:37:46.546Z,1.90
2023-02-25T12:39:29.028Z,1.80
2023-02-25T12:41:02.222Z,1.50
2023-02-25T12:42:34.253Z,1.80
2023-02-25T12:44:03.526Z,2.42
2023-02-25T12:45:51.737Z,2.42
2023-02-25T12:47:24.337Z,2.20
2023-02-25T12:49:06.318Z,2.40
2023-02-25T12:51:01.204Z,2.20
2023-02-25T12:52:34.504Z,2.00
2023-02-25T12:54:00.168Z,2.58
2023-02-25T12:55:42.869Z,2.53
2023-02-25T12:57:18.164Z,1.88
2023-02-25T12:58:47.524Z,2.95
2023-02-25T13:00:25.520Z,2.40
2023-02-25T13:01:54.544Z,2.65
2023-02-25T13:03:27.415Z,2.42
2023-02-25T13:05:14.255Z,3.05
2023-02-25T13:06:48.775Z,2.60
2023-02-25T13:08:27.966Z,2.58
2023-02-25T13:10:03.426Z,2.60
2023-02-25T13:11:31.307Z,3.35
2023-02-25T13:13:00.814Z,2.40
2023-02-25T13:14:33.647Z,2.55
2023-02-25T13:16:04.094Z,2.42
2023-02-25T13:17:31.093Z,2.22
2023-02-25T13:19:01.516Z,2.45
2023-02-25T13:20:47.839Z,2.05
2023-02-25T13:22:18.129Z,2.53
2023-02-25T13:23:49.197Z,2.38
2023-02-25T13:25:14.290Z,2.38
2023-02-25T13:27:04.708Z,2.85
2023-02-25T13:28:40.310Z,2.80
2023-02-25T13:30:27.030Z,2.85
2023-02-25T13:31:51.937Z,3.33
2023-02-25T13:33:24.213Z,2.80
2023-02-25T13:34:48.677Z,2.70
2023-02-25T13:36:32.422Z,1.90
2023-02-25T13:38:00.457Z,2.08
2023-02-25T13:39:48.874Z,2.08
2023-02-25T13:41:33.004Z,2.25
2023-02-25T13:43:29.746Z,2.55
2023-02-25T13:45:25.721Z,1.92
2023-02-25T13:47:15.857Z,1.88
2023-02-25T13:48:58.376Z,2.30
2023-02-25T13:50:45.819Z,2.03
2023-02-25T13:52:26.252Z,1.75
2023-02-25T13:54:03.403Z,2.13
2023-02-25T13:55:34.695Z,2.72
2023-02-25T13:57:21.028Z,2.38
2023-02-25T13:59:06.114Z,2.33
2023-02-25T14:00:46.226Z,2.80
2023-02-25T14:02:34.490Z,2.03
2023-02-25T14:04:36.828Z,2.45
2023-02-25T14:06:03.307Z,2.95
2023-02-25T14:07:42.983Z,2.63
2023-02-25T14:09:16.313Z,2.33
2023-02-25T14:10:55.029Z,2.45
2023-02-25T14:12:26.389Z,2.80
2023-02-25T14:14:06.627Z,2.63
2023-02-25T14:15:43.211Z,2.50
2023-02-25T14:17:15.671Z,2.72
2023-02-25T14:18:45.213Z,2.58
2023-02-25T14:20:18.107Z,2.28
2023-02-25T14:22:00.424Z,2.55
2023-02-25T14:23:25.716Z,2.72
2023-02-25T14:24:50.713Z,3.00
2023-02-25T14:26:23.733Z,2.35
2023-02-25T14:27:51.233Z,2.40
2023-02-25T14:29:20.348Z,2.22
2023-02-25T14:30:49.938Z,3.00
2023-02-25T14:32:24.819Z,2.70
2023-02-25T14:34:12.822Z,2.63
2023-02-25T14:35:51.125Z,2.47
2023-02-25T14:37:21.410Z,2.25
2023-02-25T14:39:01.166Z,2.70
2023-02-25T14:40:28.835Z,2.42
2023-02-25T14:42:01.719Z,2.55
2023-02-25T14:43:29.976Z,3.22
2023-02-25T14:44:55.866Z,3.25
2023-02-25T14:46:26.509Z,2.70
2023-02-25T14:47:54.591Z,2.42
2023-02-25T14:49:20.478Z,2.63
2023-02-25T14:50:45.300Z,2.05
2023-02-25T14:52:26.729Z,2.88
2023-02-25T14:54:13.413Z,1.90
2023-02-25T14:55:58.520Z,2.08
2023-02-25T14:57:46.211Z,1.95
2023-02-25T14:59:39.082Z,2.28
2023-02-25T15:01:32.320Z,2.60
2023-02-25T15:03:08.993Z,2.70
2023-02-25T15:04:48.981Z,2.75
2023-02-25T15:06:19.851Z,2.05
2023-02-25T15:08:11.075Z,2.25
2023-02-25T15:10:03.129Z,2.10
2023-02-25T15:11:49.357Z,2.20
2023-02-25T15:13:24.870Z,2.20
2023-02-25T15:15:23.748Z,2.17
2023-02-25T15:17:14.043Z,2.55
2023-02-25T15:18:52.694Z,3.30
2023-02-25T15:20:40.851Z,2.20
2023-02-25T15:22:17.868Z,2.70
2023-02-25T15:23:48.974Z,2.85
2023-02-25T15:25:45.141Z,2.78
2023-02-25T15:27:40.731Z,2.63
2023-02-25T15:29:02.981Z,3.00
2023-02-25T15:30:25.928Z,2.70
2023-02-25T15:32:10.939Z,3.42
2023-02-25T15:33:35.256Z,2.88
2023-02-25T15:34:57.636Z,3.70
2023-02-25T15:36:24.574Z,2.63
2023-02-25T15:38:03.646Z,2.47
2023-02-25T15:39:47.021Z,2.33
2023-02-25T15:41:37.101Z,2.38
2023-02-25T15:42:58.726Z,3.03
2023-02-25T15:44:36.526Z,3.03
2023-02-25T15:46:32.400Z,2.03
2023-02-25T15:48:39.168Z,2.10
2023-02-25T15:50:00.306Z,2.58
2023-02-25T15:51:39.440Z,2.30
2023-02-25T15:53:00.518Z,2.83
2023-02-25T15:54:46.471Z,2.90
2023-02-25T15:56:30.748Z,2.22
2023-02-25T15:57:51.412Z,2.55
2023-02-25T15:59:11.746Z,2.92
2023-02-25T16:00:52.806Z,2.70
2023-02-25T16:02:43.466Z,2.50
2023-02-25T16:04:27.956Z,2.10
2023-02-25T16:05:48.687Z,2.05
2023-02-25T16:07:13.502Z,2.38
2023-02-25T16:08:37.766Z,2.17
2023-02-25T16:10:01.016Z,2.55
2023-02-25T16:11:26.656Z,2.05
2023-02-25T16:12:50.755Z,2.42
2023-02-25T16:14:15.592Z,2.45
2023-02-25T16:15:39.515Z,1.92
2023-02-25T16:17:05.448Z,2.33
2023-02-25T16:18:29.311Z,2.28
2023-02-25T16:19:53.832Z,2.33
2023-02-25T16:21:20.424Z,2.65
2023-02-25T16:22:44.791Z,2.28
2023-02-25T16:24:08.294Z,2.67
2023-02-25T16:25:36.451Z,2.00
2023-02-25T16:26:59.137Z,2.85
2023-02-25T16:28:25.420Z,2.40
2023-02-25T16:29:53.761Z,2.50
2023-02-25T16:31:18.168Z,2.53
2023-02-25T16:32:46.275Z,2.35
2023-02-25T16:34:11.237Z,2.10
2023-02-25T16:35:34.852Z,2.15
2023-02-25T16:37:05.568Z,2.10
2023-02-25T16:38:32.944Z,2.10
2023-02-25T16:39:53.842Z,2.67
2023-02-25T16:41:15.299Z,2.70
2023-02-25T16:43:56.714Z,2.45
2023-02-25T16:45:25.265Z,2.50
2023-02-25T16:46:49.586Z,2.90
2023-02-25T16:48:16.143Z,2.50
2023-02-25T16:49:39.262Z,3.17
2023-02-25T16:51:08.541Z,3.75
2023-02-25T16:52:31.380Z,2.50
2023-02-25T16:53:55.370Z,2.50
2023-02-25T16:55:19.287Z,3.05
2023-02-25T16:56:41.534Z,3.55
2023-02-25T16:58:07.067Z,10.88
2023-02-25T16:59:31.161Z,4.13
2023-02-25T17:00:53.384Z,3.17
2023-02-25T17:02:24.797Z,2.83
2023-02-25T17:03:47.084Z,2.50
2023-02-25T17:05:23.001Z,2.70
2023-02-25T17:06:43.723Z,2.78
2023-02-25T17:08:06.229Z,2.55
2023-02-25T17:09:26.919Z,3.08
2023-02-25T17:10:49.935Z,3.35
2023-02-25T17:12:13.171Z,4.03
2023-02-25T17:13:35.964Z,3.72
2023-02-25T17:14:58.248Z,2.92
2023-02-25T17:16:21.881Z,2.85
2023-02-25T17:17:43.529Z,3.03
2023-02-25T17:19:07.223Z,2.92
2023-02-25T17:20:27.864Z,3.28
2023-02-25T17:21:51.924Z,3.47
2023-02-25T17:23:14.061Z,3.17
2023-02-25T17:24:34.639Z,3.75
2023-02-25T17:25:55.819Z,2.83
2023-02-25T17:27:16.897Z,2.60
2023-02-25T17:28:37.630Z,3.40
2023-02-25T17:29:58.444Z,3.65
2023-02-25T17:31:20.737Z,4.00
2023-02-25T17:32:41.509Z,3.50
2023-02-25T17:34:10.348Z,3.80
2023-02-25T17:35:31.719Z,4.78
2023-02-25T17:36:52.436Z,4.32
2023-02-25T17:38:16.000Z,3.95
2023-02-25T17:39:36.677Z,3.58
2023-02-25T17:40:57.629Z,4.28
2023-02-25T17:42:33.060Z,4.57
2023-02-25T17:43:53.953Z,3.95
2023-02-25T17:45:42.170Z,4.53
2023-02-25T17:47:02.829Z,4.43
2023-02-25T17:48:25.134Z,4.85
2023-02-25T17:49:47.581Z,4.68
2023-02-25T17:51:08.583Z,4.57
2023-02-25T17:52:31.209Z,3.97
2023-02-25T17:53:56.132Z,3.70
2023-02-25T17:55:23.491Z,3.53
2023-02-25T17:56:44.787Z,3.80
2023-02-25T17:59:36.110Z,3.55
2023-02-25T18:00:59.531Z,3.10
2023-02-25T18:02:32.352Z,3.10
2023-02-25T18:03:53.527Z,3.53
2023-02-25T18:05:28.341Z,3.38
2023-02-25T18:06:48.808Z,3.35
2023-02-25T18:08:16.131Z,3.33
2023-02-25T18:09:39.761Z,3.10
2023-02-25T18:11:03.026Z,2.90
2023-02-25T18:12:26.408Z,3.00
2023-02-25T18:13:47.349Z,3.47
2023-02-25T18:15:16.084Z,2.80
2023-02-25T18:16:39.280Z,4.80
2023-02-25T18:18:01.262Z,5.00
2023-02-25T18:19:36.610Z,4.93
2023-02-25T18:20:58.643Z,5.03
2023-02-25T18:22:33.928Z,4.40
2023-02-25T18:23:54.637Z,3.78
2023-02-25T18:25:29.829Z,4.63
2023-02-25T18:27:21.349Z,3.33
2023-02-25T18:28:41.670Z,3.08
2023-02-25T18:30:15.551Z,3.45
2023-02-25T18:31:36.162Z,3.78
2023-02-25T18:32:57.557Z,3.60
2023-02-25T18:34:18.192Z,3.80
2023-02-25T18:35:40.704Z,4.82
2023-02-25T18:37:02.677Z,4.40
2023-02-25T18:38:25.542Z,4.70
2023-02-25T18:39:47.770Z,4.93
2023-02-25T18:41:08.104Z,5.93
2023-02-25T18:42:28.781Z,5.00
2023-02-25T18:43:49.009Z,5.93
2023-02-25T18:45:14.552Z,5.85
2023-02-25T18:46:35.104Z,5.60
2023-02-25T18:47:56.003Z,5.30
2023-02-25T18:49:16.465Z,4.68
2023-02-25T18:50:37.650Z,4.72
2023-02-25T18:51:58.231Z,5.72
2023-02-25T18:53:22.272Z,5.37
2023-02-25T18:54:42.550Z,4.68
2023-02-25T18:56:03.298Z,3.90
2023-02-25T18:57:25.800Z,3.90
2023-02-25T18:58:46.192Z,3.53
2023-02-25T19:00:08.867Z,4.32
2023-02-25T19:01:32.124Z,4.70
2023-02-25T19:02:54.314Z,3.90
2023-02-25T19:04:16.718Z,3.80
2023-02-25T19:05:37.323Z,6.10
2023-02-25T19:06:58.068Z,4.57
2023-02-25T19:08:19.839Z,4.53
2023-02-25T19:09:40.534Z,4.80
2023-02-25T19:11:01.436Z,2.85
2023-02-25T19:12:22.548Z,3.25
2023-02-25T19:13:43.234Z,3.33
2023-02-25T19:15:06.576Z,2.67
2023-02-25T19:16:27.580Z,3.47
2023-02-25T19:17:48.993Z,2.72